createdAt,value
2019-04-21T00:01:05.681Z,22.07
2019-04-21T00:03:42.282Z,16.77
2019-04-21T00:06:22.473Z,16.00
2019-04-21T00:08:59.300Z,15.80
2019-04-21T00:11:29.360Z,18.67
2019-04-21T00:13:52.218Z,17.20
2019-04-21T00:16:14.114Z,17.20
2019-04-21T00:18:58.193Z,19.83
2019-04-21T00:21:29.144Z,15.63
2019-04-21T00:24:25.190Z,18.10
2019-04-21T00:27:03.858Z,17.77
2019-04-21T00:29:38.352Z,16.67
2019-04-21T00:32:03.362Z,20.03
2019-04-21T00:34:21.606Z,17.23
2019-04-21T00:37:05.126Z,17.80
2019-04-21T00:39:59.206Z,18.37
2019-04-21T00:42:14.392Z,16.67
2019-04-21T00:44:36.775Z,19.10
2019-04-21T00:47:25.263Z,18.03
2019-04-21T00:49:56.626Z,19.63
2019-04-21T00:52:58.072Z,16.40
2019-04-21T00:58:03.452Z,22.73
2019-04-21T01:00:32.544Z,18.70
2019-04-21T01:03:09.340Z,17.80
2019-04-21T01:05:42.852Z,17.70
2019-04-21T01:08:09.438Z,16.80
2019-04-21T01:10:35.964Z,16.43
2019-04-21T01:13:18.376Z,16.80
2019-04-21T01:15:48.942Z,19.53
2019-04-21T01:18:16.885Z,16.53
2019-04-21T01:23:10.520Z,21.70
2019-04-21T01:25:50.441Z,19.20
2019-04-21T01:28:29.013Z,23.90
2019-04-21T01:31:03.454Z,19.90
2019-04-21T01:33:38.018Z,21.10
2019-04-21T01:36:06.939Z,21.70
2019-04-21T01:38:42.841Z,20.30
2019-04-21T01:41:18.383Z,18.37
2019-04-21T01:43:39.465Z,16.67
2019-04-21T01:46:09.300Z,17.70
2019-04-21T01:48:41.521Z,20.10
2019-04-21T01:51:16.066Z,20.93
2019-04-21T01:54:07.636Z,19.00
2019-04-21T01:56:51.422Z,21.97
2019-04-21T01:59:11.046Z,18.27
2019-04-21T02:01:52.438Z,20.63
2019-04-21T02:04:33.085Z,21.13
2019-04-21T02:06:57.339Z,20.33
2019-04-21T02:09:37.192Z,21.23
2019-04-21T02:12:10.553Z,19.03
2019-04-21T02:14:45.865Z,24.13
2019-04-21T02:17:14.922Z,21.80
2019-04-21T02:19:37.510Z,21.57
2019-04-21T02:22:11.474Z,19.33
2019-04-21T02:24:56.822Z,19.40
2019-04-21T02:27:21.848Z,21.87
2019-04-21T02:29:55.948Z,20.33
2019-04-21T02:32:42.079Z,19.37
2019-04-21T02:37:44.655Z,21.93
2019-04-21T02:40:20.948Z,21.83
2019-04-21T02:42:46.606Z,19.93
2019-04-21T02:45:09.295Z,25.10
2019-04-21T02:47:50.670Z,20.73
2019-04-21T02:52:46.301Z,20.53
2019-04-21T02:55:08.226Z,22.33
2019-04-21T02:57:51.444Z,23.23
2019-04-21T03:00:25.076Z,18.87
2019-04-21T03:03:45.283Z,23.40
2019-04-21T03:06:26.390Z,30.30
2019-04-21T03:11:42.605Z,24.27
2019-04-21T03:14:05.873Z,23.90
2019-04-21T03:16:26.504Z,26.03
2019-04-21T03:19:05.854Z,27.77
2019-04-21T03:21:29.025Z,27.53
2019-04-21T03:29:12.142Z,25.00
2019-04-21T03:32:06.147Z,25.07
2019-04-21T03:36:56.911Z,24.57
2019-04-21T03:39:11.969Z,27.30
2019-04-21T03:41:48.100Z,26.50
2019-04-21T03:44:14.701Z,29.20
2019-04-21T03:47:08.342Z,28.73
2019-04-21T03:52:10.814Z,23.50
2019-04-21T03:55:41.384Z,34.33
2019-04-21T03:58:05.128Z,29.80
2019-04-21T04:00:34.623Z,27.50
2019-04-21T04:16:27.018Z,37.00
2019-04-21T04:21:30.794Z,35.97
2019-04-21T04:23:57.847Z,41.33
2019-04-21T04:26:22.138Z,43.40
2019-04-21T04:28:56.283Z,39.17
2019-04-21T04:31:32.056Z,39.83
2019-04-21T04:34:05.056Z,29.93
2019-04-21T04:36:50.503Z,28.57
2019-04-21T04:39:45.600Z,30.00
2019-04-21T04:42:35.498Z,28.30
2019-04-21T04:45:01.600Z,26.07
2019-04-21T04:52:31.292Z,29.57
2019-04-21T04:55:03.860Z,26.40
2019-04-21T04:57:29.473Z,26.40
2019-04-21T04:59:49.870Z,29.90
2019-04-21T05:02:29.944Z,31.67
2019-04-21T05:05:15.704Z,23.70
2019-04-21T05:09:59.393Z,27.77
2019-04-21T05:15:04.850Z,25.87
2019-04-21T05:17:38.183Z,25.87
2019-04-21T05:20:08.866Z,28.50
2019-04-21T05:22:29.030Z,27.30
2019-04-21T05:24:55.358Z,29.43
2019-04-21T05:27:46.959Z,23.90
2019-04-21T05:30:49.027Z,24.13
2019-04-21T05:33:39.832Z,24.57
2019-04-21T05:36:10.945Z,27.30
2019-04-21T05:38:56.645Z,30.87
2019-04-21T06:19:43.507Z,18.80
2019-04-21T06:32:36.255Z,16.67
2019-04-21T06:47:47.320Z,13.03
2019-04-21T06:50:09.658Z,12.47
2019-04-21T07:03:11.533Z,10.50
2019-04-21T07:05:33.551Z,11.47
2019-04-21T07:20:36.733Z,10.40
2019-04-21T07:23:09.488Z,11.60
2019-04-21T07:25:49.781Z,10.25
2019-04-21T07:35:49.294Z,8.98
2019-04-21T07:38:16.661Z,9.03
2019-04-21T07:53:55.929Z,9.28
2019-04-21T08:06:26.831Z,8.00
2019-04-21T08:08:55.992Z,7.80
2019-04-21T08:13:57.252Z,6.70
2019-04-21T08:16:30.599Z,7.78
2019-04-21T08:19:09.762Z,7.78
2019-04-21T08:21:35.644Z,9.25
2019-04-21T08:24:06.368Z,6.03
2019-04-21T08:26:44.906Z,6.45
2019-04-21T08:29:21.464Z,6.28
2019-04-21T08:31:50.329Z,6.70
2019-04-21T08:34:14.078Z,6.42
2019-04-21T08:36:43.238Z,5.95
2019-04-21T08:39:12.996Z,5.90
2019-04-21T08:41:46.027Z,5.85
2019-04-21T08:44:23.197Z,5.62
2019-04-21T08:46:55.086Z,5.87
2019-04-21T08:49:22.239Z,5.60
2019-04-21T08:51:57.823Z,5.10
2019-04-21T08:57:16.327Z,5.85
2019-04-21T09:20:13.960Z,4.62
2019-04-21T09:22:38.226Z,4.05
2019-04-21T09:25:14.657Z,4.67
2019-04-21T09:27:42.459Z,4.15
2019-04-21T09:30:01.040Z,4.35
2019-04-21T09:32:30.781Z,4.62
2019-04-21T09:35:03.356Z,4.95
2019-04-21T09:37:43.488Z,5.08
2019-04-21T09:40:03.018Z,6.22
2019-04-21T09:42:40.969Z,6.53
2019-04-21T09:45:07.669Z,8.80
2019-04-21T09:47:45.041Z,10.10
2019-04-21T09:50:10.253Z,11.80
2019-04-21T09:52:48.850Z,13.05
2019-04-21T09:57:48.453Z,14.60
2019-04-21T10:02:54.479Z,17.60
2019-04-21T10:05:16.892Z,17.75
2019-04-21T10:07:46.795Z,16.03
2019-04-21T10:10:17.277Z,16.93
2019-04-21T10:12:47.774Z,17.80
2019-04-21T10:15:19.118Z,16.73
2019-04-21T10:17:53.979Z,20.07
2019-04-21T10:20:24.508Z,18.80
2019-04-21T10:22:55.296Z,16.67
2019-04-21T10:25:25.196Z,19.70
2019-04-21T10:27:55.174Z,15.77
2019-04-21T10:30:24.926Z,15.73
2019-04-21T10:32:54.770Z,15.03
2019-04-21T10:35:26.001Z,15.85
2019-04-21T10:38:06.793Z,25.10
2019-04-21T10:40:29.191Z,17.40
2019-04-21T10:42:58.939Z,16.60
2019-04-21T10:45:28.770Z,16.55
2019-04-21T10:47:58.849Z,14.10
2019-04-21T10:50:28.820Z,14.97
2019-04-21T10:53:01.084Z,14.60
2019-04-21T10:58:28.478Z,17.50
2019-04-21T11:01:27.378Z,16.17
2019-04-21T11:04:19.550Z,14.53
2019-04-21T11:06:42.401Z,15.00
2019-04-21T11:09:13.760Z,19.00
2019-04-21T11:11:46.467Z,14.97
2019-04-21T17:54:50.575Z,10.43
2019-04-21T17:57:36.843Z,10.27
2019-04-21T18:00:52.050Z,11.83
2019-04-21T18:03:00.035Z,8.60
2019-04-21T18:10:30.684Z,11.47
2019-04-21T18:12:57.345Z,9.03
2019-04-21T18:15:38.270Z,12.70
2019-04-21T18:17:52.412Z,10.70
2019-04-21T18:39:28.811Z,9.80
2019-04-21T18:42:04.909Z,11.90
2019-04-21T18:47:39.897Z,14.40
2019-04-21T19:35:13.049Z,9.90
2019-04-21T19:48:05.558Z,9.15
2019-04-21T19:52:57.841Z,12.97
2019-04-21T19:55:20.060Z,15.67
2019-04-21T19:57:50.016Z,16.80
2019-04-21T20:00:20.118Z,16.70
2019-04-21T20:02:50.410Z,20.20
2019-04-21T20:05:29.746Z,13.37
2019-04-21T20:08:06.629Z,15.77
2019-04-21T20:10:44.151Z,14.20
2019-04-21T20:13:26.073Z,11.57
2019-04-21T20:15:45.848Z,11.97
2019-04-21T20:18:14.482Z,14.60
2019-04-21T20:20:31.040Z,12.67
2019-04-21T20:23:01.325Z,9.87
2019-04-21T20:25:41.816Z,14.00
2019-04-21T20:28:09.955Z,9.27
2019-04-21T20:30:52.679Z,13.70
2019-04-21T20:35:58.281Z,13.57
2019-04-21T20:38:19.069Z,9.80
2019-04-21T20:40:51.008Z,13.50
2019-04-21T20:43:36.557Z,13.53
2019-04-21T20:46:03.553Z,11.80
2019-04-21T20:48:28.628Z,9.80
2019-04-21T20:51:06.448Z,12.40
2019-04-21T20:53:34.318Z,19.10
2019-04-21T20:56:05.208Z,12.73
2019-04-21T20:58:40.732Z,11.80
2019-04-21T21:01:25.730Z,11.87
2019-04-21T21:03:46.082Z,14.07
2019-04-21T21:06:09.970Z,15.23
2019-04-21T21:08:49.810Z,14.43
2019-04-21T21:11:21.519Z,14.10
2019-04-21T21:13:53.701Z,21.20
2019-04-21T21:16:35.458Z,12.47
2019-04-21T21:19:10.291Z,15.43
2019-04-21T21:21:27.952Z,14.37
2019-04-21T21:23:58.821Z,14.17
2019-04-21T21:26:33.224Z,17.87
2019-04-21T21:28:56.356Z,12.77
2019-04-21T21:31:37.973Z,12.73
2019-04-21T21:34:13.295Z,13.67
2019-04-21T21:36:39.714Z,12.23
2019-04-21T21:39:09.648Z,13.30
2019-04-21T21:41:29.878Z,14.93
2019-04-21T21:44:01.818Z,14.43
2019-04-21T21:46:41.671Z,13.90
2019-04-21T21:49:07.580Z,28.90
2019-04-21T21:51:42.239Z,13.23
2019-04-21T21:54:00.929Z,14.33
2019-04-21T21:56:30.688Z,17.17
2019-04-21T21:59:01.206Z,11.87
2019-04-21T22:01:39.914Z,15.53
2019-04-21T22:04:12.712Z,17.57
2019-04-21T22:06:43.365Z,15.13
2019-04-21T22:09:10.347Z,13.00
2019-04-21T22:11:40.306Z,14.50
2019-04-21T22:14:16.654Z,14.73
2019-04-21T22:16:49.323Z,17.77
2019-04-21T22:19:30.027Z,13.03
2019-04-21T22:22:08.368Z,14.50
2019-04-21T22:24:35.138Z,16.07
2019-04-21T22:26:47.417Z,15.60
2019-04-21T22:29:17.329Z,17.23
2019-04-21T22:31:48.341Z,14.20
2019-04-21T22:34:23.015Z,16.23
2019-04-21T22:37:01.523Z,16.17
2019-04-21T22:39:42.127Z,13.13
2019-04-21T22:42:01.753Z,16.53
2019-04-21T22:44:24.737Z,14.17
2019-04-21T22:47:04.196Z,18.23
2019-04-21T22:49:26.475Z,13.63
2019-04-21T22:52:00.758Z,13.70
2019-04-21T22:54:34.330Z,18.63
2019-04-21T22:57:05.229Z,18.00
2019-04-21T22:59:32.036Z,15.10
2019-04-21T23:02:06.428Z,14.33
2019-04-21T23:04:41.815Z,14.60
2019-04-21T23:07:10.110Z,15.20
2019-04-21T23:09:37.529Z,13.60
2019-04-21T23:12:08.054Z,14.20
2019-04-21T23:14:46.770Z,13.30
2019-04-21T23:17:29.846Z,16.87
2019-04-21T23:20:04.058Z,13.37
2019-04-21T23:22:31.282Z,14.70
2019-04-21T23:25:02.982Z,16.93
2019-04-21T23:27:33.687Z,15.83
2019-04-21T23:30:13.554Z,17.40
2019-04-21T23:32:30.448Z,13.23
2019-04-21T23:34:51.106Z,11.33
2019-04-21T23:37:24.127Z,17.93
2019-04-21T23:40:01.148Z,13.20
2019-04-21T23:42:31.825Z,12.43
2019-04-21T23:44:58.402Z,13.43
2019-04-21T23:47:39.093Z,16.07
2019-04-21T23:50:07.367Z,13.70
2019-04-21T23:52:29.982Z,10.63
2019-04-21T23:55:00.991Z,12.30
2019-04-21T23:57:37.934Z,12.60
